Time;durP1;ratioP1;P1;durP2;ratioP2;P2;SDS_P1;SDS_P2;PMS_P1;PMS_P2;Temp;Humidity;BMP_temperature;BMP_pressure;BME280_temperature;BME280_humidity;BME280_pressure;Samples;Min_cycle;Max_cycle;Signal;HPM_P1;HPM_P2
2023/01/14 00:01:03;;;;;;;10.45;1.00;;;;;;;6.05;77.07;99538.94;5063342;28;20721;-52
2023/01/14 00:03:31;;;;;;;9.75;2.30;;;;;;;6.08;76.02;99523.53;5058077;28;20518;-50
2023/01/14 00:05:59;;;;;;;10.23;2.75;;;;;;;6.08;77.11;99528.66;5064161;28;20088;-52
2023/01/14 00:08:27;;;;;;;8.52;2.35;;;;;;;6.13;75.65;99511.56;5062899;28;20059;-53
2023/01/14 00:10:54;;;;;;;6.47;2.35;;;;;;;6.09;76.94;99504.69;5065977;28;20087;-51
2023/01/14 00:13:20;;;;;;;10.70;2.30;;;;;;;6.09;76.20;99484.13;5065497;28;20037;-54
2023/01/14 00:15:51;;;;;;;10.70;2.85;;;;;;;6.13;75.60;99475.56;5064508;28;20052;-50
2023/01/14 00:18:19;;;;;;;9.32;2.25;;;;;;;6.10;75.81;99466.97;5058816;28;20045;-52
2023/01/14 00:20:55;;;;;;;9.68;2.33;;;;;;;6.13;75.75;99465.28;5065530;28;20129;-52
2023/01/14 00:23:22;;;;;;;11.23;3.47;;;;;;;6.16;76.86;99460.19;5060400;28;20133;-53
2023/01/14 00:25:49;;;;;;;8.90;1.08;;;;;;;6.16;77.26;99449.88;5063884;28;20449;-55
2023/01/14 00:28:15;;;;;;;9.15;2.45;;;;;;;6.19;77.39;99427.59;5064170;28;20048;-50
2023/01/14 00:30:42;;;;;;;6.50;1.85;;;;;;;6.20;77.72;99421.59;5064637;28;20076;-54
2023/01/14 00:33:09;;;;;;;14.32;3.10;;;;;;;6.21;77.49;99410.47;5069344;28;20116;-52
2023/01/14 00:35:36;;;;;;;5.47;1.92;;;;;;;6.18;77.87;99395.88;5069670;28;20123;-54
2023/01/14 00:38:02;;;;;;;7.30;2.47;;;;;;;6.23;76.82;99393.31;5043190;28;20131;-54
2023/01/14 00:40:29;;;;;;;9.98;2.30;;;;;;;6.22;77.50;99392.50;5063882;28;20152;-51
2023/01/14 00:42:56;;;;;;;11.88;2.08;;;;;;;6.28;76.72;99383.91;5062161;28;20563;-53
2023/01/14 00:45:22;;;;;;;5.57;0.73;;;;;;;6.30;77.03;99379.66;5061190;28;21009;-53
2023/01/14 00:47:49;;;;;;;7.53;2.00;;;;;;;6.30;76.71;99369.34;5065135;28;20072;-51
2023/01/14 00:50:15;;;;;;;9.27;2.47;;;;;;;6.35;77.22;99362.50;5061552;28;20102;-54
2023/01/14 00:52:42;;;;;;;15.85;3.35;;;;;;;6.35;76.87;99344.50;5068870;28;20044;-54
2023/01/14 00:55:08;;;;;;;9.65;2.30;;;;;;;6.40;77.41;99350.53;5072147;28;20040;-54
2023/01/14 00:57:35;;;;;;;8.23;2.83;;;;;;;6.42;76.67;99353.97;5058495;28;20102;-54
2023/01/14 01:00:02;;;;;;;9.85;2.72;;;;;;;6.46;76.85;99341.13;5067354;28;20144;-52
2023/01/14 01:02:29;;;;;;;4.63;2.05;;;;;;;6.45;77.78;99336.81;5064061;28;20542;-55
2023/01/14 01:04:55;;;;;;;8.02;2.35;;;;;;;6.43;78.32;99322.22;5069724;28;20040;-53
2023/01/14 01:07:22;;;;;;;7.93;3.20;;;;;;;6.48;78.63;99316.25;5067222;28;20094;-55
2023/01/14 01:09:49;;;;;;;16.73;3.20;;;;;;;6.50;78.54;99309.38;5067330;28;20106;-54
2023/01/14 01:12:15;;;;;;;12.45;2.88;;;;;;;6.50;78.21;99299.09;5065362;28;20099;-54
2023/01/14 01:14:42;;;;;;;8.88;1.90;;;;;;;6.43;79.99;99293.94;5064547;28;20076;-55
2023/01/14 01:17:08;;;;;;;13.60;2.70;;;;;;;6.47;78.82;99278.50;5065831;28;20098;-51
2023/01/14 01:19:35;;;;;;;9.30;2.88;;;;;;;6.46;79.33;99277.66;5058607;28;20518;-53
2023/01/14 01:22:02;;;;;;;9.18;2.22;;;;;;;6.47;79.70;99273.34;5069403;28;20544;-55
2023/01/14 01:24:30;;;;;;;13.07;2.90;;;;;;;6.51;79.89;99265.66;5070271;28;20075;-56
2023/01/14 01:26:59;;;;;;;10.55;2.22;;;;;;;6.51;80.57;99254.50;5073609;28;20075;-52
2023/01/14 01:29:27;;;;;;;9.75;2.38;;;;;;;6.53;81.22;99247.66;5057683;28;20051;-55
2023/01/14 01:31:55;;;;;;;12.10;2.95;;;;;;;6.54;79.90;99244.22;5065353;28;20056;-57
2023/01/14 01:34:23;;;;;;;8.00;2.90;;;;;;;6.53;80.16;99234.78;5072429;28;20044;-51
2023/01/14 01:36:51;;;;;;;8.98;4.00;;;;;;;6.55;81.63;99235.63;5068201;28;20055;-55
2023/01/14 01:39:19;;;;;;;7.88;2.38;;;;;;;6.55;81.61;99221.06;5067212;28;20052;-54
2023/01/14 01:41:47;;;;;;;8.93;1.83;;;;;;;6.56;80.28;99216.78;5071647;28;20048;-55
2023/01/14 01:46:51;;;;;;;11.32;1.52;;;;;;;6.55;81.34;99189.31;5095162;27;20404;-54
2023/01/14 01:49:27;;;;;;;7.97;2.33;;;;;;;6.56;81.01;99181.59;5101028;28;20043;-50
2023/01/14 01:52:13;;;;;;;10.52;1.50;;;;;;;6.57;82.49;99177.31;5100561;28;20131;-51
2023/01/14 01:54:47;;;;;;;9.27;1.55;;;;;;;6.58;81.38;99163.59;5096460;28;20079;-49
2023/01/14 01:57:16;;;;;;;8.48;1.23;;;;;;;6.59;82.16;99154.16;5097507;28;20535;-53
2023/01/14 01:59:47;;;;;;;7.57;1.10;;;;;;;6.57;82.43;99146.44;5079779;28;20080;-54
2023/01/14 02:02:15;;;;;;;12.52;1.58;;;;;;;6.57;82.40;99143.88;5074683;28;20051;-51
2023/01/14 02:04:42;;;;;;;13.82;0.98;;;;;;;6.55;82.23;99135.28;5076392;28;20044;-56
2023/01/14 02:07:20;;;;;;;9.52;1.60;;;;;;;6.52;84.32;99132.75;5072404;28;20134;-58
2023/01/14 02:09:49;;;;;;;10.00;0.90;;;;;;;6.56;82.75;99113.88;5068109;28;20572;-55
2023/01/14 02:20:46;;;;;;;5.18;0.73;;;;;;;6.61;83.37;99076.13;5020074;27;20418;-54
2023/01/14 02:40:44;;;;;;;9.52;1.90;;;;;;;6.71;84.79;98997.16;5030275;28;20401;-56
2023/01/14 02:46:14;;;;;;;7.72;2.17;;;;;;;6.79;84.99;98981.72;4998940;28;20399;-56
2023/01/14 02:48:42;;;;;;;6.53;2.55;;;;;;;6.80;85.62;98967.97;4998342;28;20129;-55
2023/01/14 02:51:10;;;;;;;4.90;2.30;;;;;;;6.78;85.23;98960.25;5002992;28;20129;-55
2023/01/14 02:53:37;;;;;;;6.40;2.03;;;;;;;6.82;84.61;98955.94;5004755;28;20050;-54
2023/01/14 02:56:04;;;;;;;5.82;1.75;;;;;;;6.88;85.13;98940.47;5000973;28;20088;-53
2023/01/14 03:07:01;;;;;;;4.90;0.73;;;;;;;6.96;84.70;98898.38;5068717;27;20387;-52
2023/01/14 03:20:33;;;;;;;5.72;0.88;;;;;;;7.23;85.44;98837.25;5072588;27;20406;-57
2023/01/14 03:23:05;;;;;;;2.58;2.15;;;;;;;7.16;85.45;98816.69;5085979;28;20067;-52
2023/01/14 03:25:36;;;;;;;2.95;0.77;;;;;;;7.17;86.02;98813.25;5063913;28;20070;-56
2023/01/14 03:28:06;;;;;;;6.63;0.73;;;;;;;7.16;85.88;98810.69;5061500;28;20050;-57
2023/01/14 03:30:37;;;;;;;6.35;0.60;;;;;;;7.19;86.33;98806.38;5079703;28;20122;-51
2023/01/14 03:33:10;;;;;;;2.05;1.83;;;;;;;7.22;86.02;98799.50;5084717;28;20662;-54
2023/01/14 03:35:39;;;;;;;3.08;1.52;;;;;;;7.24;85.94;98772.00;5080960;28;20040;-57
2023/01/14 03:38:12;;;;;;;2.35;1.38;;;;;;;7.27;87.34;98767.69;5076215;28;20095;-56
2023/01/14 03:40:41;;;;;;;1.75;1.63;;;;;;;7.31;86.65;98758.19;5081544;28;20492;-55
2023/01/14 03:43:16;;;;;;;1.80;1.70;;;;;;;7.35;86.36;98739.25;5078442;28;20063;-56
2023/01/14 03:45:45;;;;;;;2.63;2.05;;;;;;;7.33;86.55;98725.56;5075993;28;20052;-56
2023/01/14 03:48:12;;;;;;;4.18;2.15;;;;;;;7.37;85.94;98721.19;5078219;28;20495;-55
2023/01/14 03:51:09;;;;;;;1.52;0.40;;;;;;;7.36;86.95;98710.03;5078461;28;20074;-56
2023/01/14 03:56:25;;;;;;;3.75;0.85;;;;;;;7.45;86.51;98675.59;5070040;27;20407;-57
2023/01/14 03:59:05;;;;;;;3.17;0.82;;;;;;;7.45;86.53;98663.56;5044300;28;20048;-54
2023/01/14 04:01:41;;;;;;;2.75;0.70;;;;;;;7.46;86.75;98644.66;5044636;28;20087;-54
2023/01/14 04:04:10;;;;;;;1.33;0.40;;;;;;;7.49;86.01;98632.63;5037820;28;20041;-55
2023/01/14 04:06:38;;;;;;;1.45;0.68;;;;;;;7.54;85.89;98621.38;5038052;28;20052;-54
2023/01/14 04:09:06;;;;;;;2.20;0.52;;;;;;;7.53;86.76;98618.84;5038569;28;20057;-57
2023/01/14 04:11:32;;;;;;;4.45;0.88;;;;;;;7.52;86.88;98605.09;5070239;28;20105;-56
2023/01/14 04:16:45;;;;;;;4.85;0.88;;;;;;;7.63;86.79;98584.31;5095439;28;20125;-59
2023/01/14 04:19:12;;;;;;;2.50;0.32;;;;;;;7.64;85.85;98565.44;5085420;28;20058;-58
2023/01/14 04:21:39;;;;;;;3.05;0.65;;;;;;;7.64;86.62;98555.13;5079998;28;20098;-55
2023/01/14 04:24:06;;;;;;;2.13;0.65;;;;;;;7.68;86.64;98543.88;5078069;28;20056;-54
2023/01/14 04:26:33;;;;;;;2.08;1.17;;;;;;;7.64;86.23;98523.34;5076339;28;20131;-57
2023/01/14 04:28:59;;;;;;;1.00;0.75;;;;;;;7.65;86.98;98510.44;5081459;28;20072;-57
2023/01/14 04:31:26;;;;;;;2.78;0.43;;;;;;;7.67;86.76;98506.09;5074924;28;20145;-57
2023/01/14 04:33:53;;;;;;;1.70;0.55;;;;;;;7.67;87.16;98480.31;5079374;28;20495;-58
2023/01/14 04:36:19;;;;;;;2.50;0.80;;;;;;;7.67;86.62;98488.03;5079953;28;20044;-56
2023/01/14 04:38:46;;;;;;;1.00;0.57;;;;;;;7.69;86.66;98455.38;5076704;28;20046;-55
2023/01/14 04:43:59;;;;;;;1.38;0.52;;;;;;;7.70;87.77;98433.06;5078973;28;20044;-57
2023/01/14 04:46:27;;;;;;;1.75;0.80;;;;;;;7.72;86.84;98424.41;5075311;28;20513;-59
2023/01/14 04:48:53;;;;;;;0.40;0.40;;;;;;;7.77;87.01;98405.44;5084644;28;20050;-54
2023/01/14 04:51:20;;;;;;;2.80;0.73;;;;;;;7.81;86.70;98407.09;5079924;28;20098;-55
2023/01/14 04:53:47;;;;;;;1.77;0.88;;;;;;;7.82;87.48;98389.00;5077773;28;20110;-54
2023/01/14 04:56:13;;;;;;;2.38;0.50;;;;;;;7.84;87.48;98391.56;5076391;28;20068;-58
2023/01/14 04:58:40;;;;;;;1.02;0.32;;;;;;;7.86;87.67;98364.00;5084515;28;20079;-57
2023/01/14 05:01:06;;;;;;;1.40;0.28;;;;;;;7.86;87.85;98350.28;5082519;28;20079;-58
2023/01/14 05:03:33;;;;;;;1.52;0.57;;;;;;;7.90;87.66;98341.63;5083461;28;20044;-59
2023/01/14 05:06:00;;;;;;;1.00;0.30;;;;;;;7.94;86.74;98332.94;5066615;28;20389;-50
2023/01/14 05:08:26;;;;;;;1.25;0.77;;;;;;;7.95;87.73;98330.34;5062694;28;20067;-52
2023/01/14 05:10:53;;;;;;;3.13;0.55;;;;;;;7.99;87.34;98313.06;5064822;28;20076;-54
2023/01/14 05:13:19;;;;;;;0.65;0.50;;;;;;;8.02;87.50;98292.38;5067375;28;20099;-57
2023/01/14 05:15:46;;;;;;;1.58;0.50;;;;;;;8.03;87.23;98285.47;5061919;28;20122;-56
2023/01/14 05:18:15;;;;;;;0.55;0.35;;;;;;;8.03;87.89;98275.16;5064194;28;20052;-57
2023/01/14 05:20:43;;;;;;;0.50;0.38;;;;;;;8.03;87.75;98270.88;5049381;28;20094;-57
2023/01/14 05:23:13;;;;;;;0.50;0.32;;;;;;;8.08;87.63;98265.63;5066257;28;20040;-55
2023/01/14 05:25:40;;;;;;;0.75;0.55;;;;;;;8.12;86.98;98241.47;5067041;28;20127;-59
2023/01/14 05:28:11;;;;;;;2.97;0.93;;;;;;;8.11;87.28;98229.47;5065284;28;20080;-54
2023/01/14 05:30:37;;;;;;;1.30;0.52;;;;;;;8.15;87.15;98231.09;5069480;28;20136;-56
2023/01/14 05:33:05;;;;;;;0.93;0.43;;;;;;;8.15;87.54;98228.50;5063736;28;20056;-56
2023/01/14 05:35:32;;;;;;;0.47;0.47;;;;;;;8.16;87.86;98212.16;5063470;28;20094;-55
2023/01/14 05:37:59;;;;;;;0.32;0.22;;;;;;;8.15;87.02;98197.56;5059000;28;20135;-56
2023/01/14 05:40:26;;;;;;;2.08;0.32;;;;;;;8.17;87.91;98203.53;5065486;28;20040;-57
2023/01/14 05:45:41;;;;;;;0.70;0.70;;;;;;;8.27;86.87;98175.78;5089065;28;20079;-56
2023/01/14 05:48:09;;;;;;;0.60;0.47;;;;;;;8.27;87.23;98162.06;5064975;28;20060;-57
2023/01/14 05:50:38;;;;;;;0.52;0.52;;;;;;;8.29;87.64;98161.13;5065655;28;20438;-57
2023/01/14 05:53:06;;;;;;;1.45;0.50;;;;;;;8.32;87.52;98148.16;5076752;28;20053;-53
2023/01/14 05:55:35;;;;;;;0.22;0.22;;;;;;;8.38;87.05;98144.59;5061670;28;20059;-57
2023/01/14 05:58:04;;;;;;;0.38;0.38;;;;;;;8.40;87.02;98136.78;5062034;28;20053;-56
2023/01/14 06:06:23;;;;;;;0.98;0.68;;;;;;;8.45;87.68;98093.69;5048662;28;20117;-57
2023/01/14 06:08:53;;;;;;;0.80;0.35;;;;;;;8.47;87.58;98097.91;5072351;28;20040;-59
2023/01/14 06:11:21;;;;;;;0.20;0.20;;;;;;;8.47;87.02;98091.91;5060196;28;20463;-55
2023/01/14 06:13:49;;;;;;;1.08;0.65;;;;;;;8.55;87.71;98078.84;5065033;28;20116;-58
2023/01/14 06:16:16;;;;;;;0.43;0.35;;;;;;;8.58;87.36;98076.19;5077440;28;20044;-56
2023/01/14 06:18:43;;;;;;;0.77;0.77;;;;;;;8.58;87.37;98068.44;5065211;28;20048;-58
2023/01/14 06:21:13;;;;;;;0.30;0.10;;;;;;;8.62;87.06;98057.16;5066300;28;20404;-59
2023/01/14 06:23:40;;;;;;;0.80;0.65;;;;;;;8.66;86.71;98048.44;5064774;28;20106;-54
2023/01/14 06:26:11;;;;;;;1.20;0.55;;;;;;;8.69;86.48;98050.94;5068012;28;20469;-55
2023/01/14 06:28:38;;;;;;;0.38;0.38;;;;;;;8.69;87.02;98038.03;5061273;28;20133;-53
2023/01/14 06:31:16;;;;;;;0.45;0.45;;;;;;;8.68;87.42;98012.28;5061302;28;20082;-55
2023/01/14 06:33:45;;;;;;;1.00;0.75;;;;;;;8.66;87.00;98009.72;5061250;28;20044;-55
2023/01/14 06:36:13;;;;;;;0.30;0.30;;;;;;;8.77;87.55;98000.81;5063593;28;21035;-59
2023/01/14 06:38:40;;;;;;;0.38;0.38;;;;;;;8.74;87.44;97989.72;5059886;28;20079;-57
2023/01/14 06:41:08;;;;;;;1.05;0.70;;;;;;;8.74;87.23;97992.28;5063005;28;20061;-57
2023/01/14 06:43:36;;;;;;;0.50;0.50;;;;;;;8.79;87.42;97984.44;5061200;28;20075;-57
2023/01/14 06:46:03;;;;;;;0.30;0.30;;;;;;;8.78;87.77;97981.88;5064050;28;20630;-59
2023/01/14 06:48:29;;;;;;;0.52;0.52;;;;;;;8.81;87.42;97956.81;5061061;28;20472;-56
2023/01/14 06:50:56;;;;;;;0.45;0.45;;;;;;;8.84;87.58;97961.03;5061570;28;20060;-59
2023/01/14 06:53:23;;;;;;;0.65;0.10;;;;;;;8.82;87.79;97953.34;5064092;28;20048;-57
2023/01/14 06:55:49;;;;;;;0.38;0.38;;;;;;;8.89;87.53;97938.53;5062776;28;20033;-54
2023/01/14 06:58:16;;;;;;;0.60;0.50;;;;;;;8.88;87.72;97921.31;5065769;28;20442;-57
2023/01/14 07:00:43;;;;;;;0.35;0.32;;;;;;;8.87;87.85;97929.97;5061501;28;20068;-55
2023/01/14 07:03:09;;;;;;;0.60;0.43;;;;;;;8.89;87.80;97922.19;5060521;28;20055;-59
2023/01/14 07:05:36;;;;;;;0.70;0.43;;;;;;;8.93;87.71;97909.16;5061205;28;20078;-58
2023/01/14 07:08:03;;;;;;;1.23;0.80;;;;;;;8.98;87.61;97896.94;5060442;28;20098;-59
2023/01/14 07:10:29;;;;;;;0.98;0.95;;;;;;;8.96;87.62;97897.88;5058332;28;21874;-54
2023/01/14 07:12:56;;;;;;;0.30;0.20;;;;;;;8.96;88.22;97893.56;5059556;28;20056;-56
2023/01/14 07:15:22;;;;;;;1.23;0.57;;;;;;;8.98;87.48;97878.84;5063532;28;20071;-59
2023/01/14 07:17:49;;;;;;;1.67;0.43;;;;;;;9.02;87.72;97873.59;5060324;28;20102;-52
2023/01/14 07:20:17;;;;;;;0.60;0.60;;;;;;;9.07;87.26;97874.28;5057856;28;20049;-59
2023/01/14 07:22:44;;;;;;;0.90;0.25;;;;;;;9.06;87.61;97863.13;5080851;28;20057;-59
2023/01/14 07:25:11;;;;;;;1.30;0.63;;;;;;;9.06;87.57;97849.38;5066983;28;20127;-59
2023/01/14 07:27:38;;;;;;;0.77;0.25;;;;;;;9.09;87.84;97857.03;5062861;28;20049;-54
2023/01/14 07:30:05;;;;;;;0.68;0.57;;;;;;;9.08;87.30;97855.31;5061930;28;20131;-56
2023/01/14 07:32:34;;;;;;;0.28;0.25;;;;;;;9.12;88.08;97826.78;5057837;28;20052;-55
2023/01/14 07:35:01;;;;;;;0.57;0.52;;;;;;;9.16;87.99;97821.50;5058867;28;20091;-56
2023/01/14 07:37:27;;;;;;;0.65;0.20;;;;;;;9.15;88.06;97819.81;5060239;28;20537;-56
2023/01/14 07:39:54;;;;;;;0.20;0.20;;;;;;;9.19;88.17;97836.91;5061913;28;20070;-57
2023/01/14 07:42:21;;;;;;;0.50;0.17;;;;;;;9.29;87.91;97832.28;5060592;28;20093;-57
2023/01/14 07:44:47;;;;;;;0.65;0.65;;;;;;;9.29;87.81;97817.59;5064243;28;20040;-58
2023/01/14 07:47:15;;;;;;;3.33;0.40;;;;;;;9.30;88.06;97819.31;5066496;28;20071;-58
2023/01/14 07:49:42;;;;;;;0.50;0.32;;;;;;;9.30;88.11;97828.78;5060707;28;20068;-60
2023/01/14 07:52:12;;;;;;;1.10;0.55;;;;;;;9.33;88.42;97823.53;5060659;28;20489;-61
2023/01/14 07:54:40;;;;;;;2.13;0.70;;;;;;;9.38;88.32;97831.97;5064805;28;20085;-57
2023/01/14 07:57:10;;;;;;;1.45;0.80;;;;;;;9.47;88.15;97817.91;5063796;28;20049;-57
2023/01/14 07:59:38;;;;;;;2.08;0.47;;;;;;;9.45;88.21;97802.44;5064287;28;20131;-54
2023/01/14 08:02:08;;;;;;;3.85;1.20;;;;;;;9.57;87.77;97815.84;5064676;28;20144;-57
2023/01/14 08:04:35;;;;;;;;;;;;;;;9.52;87.58;97801.34;5060462;28;20041;-57
2023/01/14 08:07:05;;;;;;;3.95;0.90;;;;;;;9.59;88.20;97801.97;5064762;28;20455;-59
2023/01/14 08:09:31;;;;;;;;;;;;;;;9.59;88.46;97808.88;5065308;28;20047;-52
2023/01/14 08:11:58;;;;;;;3.70;0.60;;;;;;;9.67;87.44;97801.72;5059680;28;19928;-57
2023/01/14 08:14:24;;;;;;;3.63;1.23;;;;;;;9.74;87.21;97803.19;5061851;28;20494;-59
2023/01/14 08:16:51;;;;;;;3.88;1.30;;;;;;;9.77;87.60;97797.88;5055311;28;20109;-57
2023/01/14 08:19:18;;;;;;;1.38;0.35;;;;;;;9.83;87.55;97793.41;5053437;28;20040;-59
2023/01/14 08:21:44;;;;;;;1.25;0.70;;;;;;;9.89;87.50;97793.16;5048230;28;20083;-55
2023/01/14 08:24:11;;;;;;;3.53;0.85;;;;;;;9.91;88.05;97783.63;5052668;28;20140;-55
2023/01/14 08:26:38;;;;;;;2.45;0.73;;;;;;;9.94;88.32;97783.50;5054394;28;20040;-55
2023/01/14 08:29:04;;;;;;;3.28;1.35;;;;;;;9.95;87.66;97782.59;5049146;28;20087;-60
2023/01/14 08:31:40;;;;;;;1.58;0.75;;;;;;;10.01;87.48;97777.22;5052496;28;20045;-58
2023/01/14 08:34:07;;;;;;;4.50;0.98;;;;;;;10.09;87.67;97781.25;5057253;28;20065;-55
2023/01/14 08:36:34;;;;;;;3.80;0.65;;;;;;;10.11;87.43;97788.06;5057942;28;20102;-57
2023/01/14 08:39:01;;;;;;;1.45;0.65;;;;;;;10.17;87.68;97799.94;5055674;28;20105;-56
2023/01/14 08:41:28;;;;;;;1.40;0.68;;;;;;;10.20;86.76;97781.69;5059222;28;20117;-58
2023/01/14 08:43:56;;;;;;;0.63;0.63;;;;;;;10.22;88.06;97771.28;5058738;28;20057;-57
2023/01/14 08:46:23;;;;;;;0.70;0.35;;;;;;;10.26;87.22;97785.78;5061707;28;21463;-60
2023/01/14 08:48:49;;;;;;;0.68;0.43;;;;;;;10.28;86.81;97771.91;5058522;28;20044;-58
2023/01/14 08:51:16;;;;;;;1.98;0.85;;;;;;;10.34;87.41;97764.81;5056158;28;20063;-59
2023/01/14 08:53:42;;;;;;;3.80;0.65;;;;;;;10.35;87.91;97766.47;5060360;28;20114;-57
2023/01/14 08:56:15;;;;;;;5.25;0.60;;;;;;;10.37;86.97;97775.88;5057178;28;20620;-56
2023/01/14 08:58:43;;;;;;;1.60;0.20;;;;;;;10.40;87.22;97764.56;5062882;28;20051;-57
2023/01/14 09:01:10;;;;;;;2.15;0.77;;;;;;;10.45;87.64;97762.69;5059939;28;20059;-58
2023/01/14 09:03:37;;;;;;;0.57;0.47;;;;;;;10.48;87.83;97765.16;5064695;28;20669;-56
2023/01/14 09:06:13;;;;;;;0.80;0.65;;;;;;;10.49;87.43;97756.47;5061526;28;20048;-56
2023/01/14 09:17:15;;;;;;;2.00;0.63;;;;;;;10.63;86.92;97749.91;5066622;28;20055;-55
2023/01/14 09:19:47;;;;;;;2.75;0.73;;;;;;;10.66;86.25;97760.13;5056160;28;20080;-57
2023/01/14 09:22:18;;;;;;;1.25;0.57;;;;;;;10.69;87.18;97749.66;5057723;28;20089;-56
2023/01/14 09:24:45;;;;;;;4.22;1.25;;;;;;;10.72;86.88;97762.50;5055479;28;20135;-59
2023/01/14 09:27:11;;;;;;;3.42;1.33;;;;;;;10.73;87.23;97756.41;5052303;28;20784;-58
2023/01/14 09:29:38;;;;;;;8.68;1.90;;;;;;;10.77;87.30;97760.53;5060933;28;20072;-57
2023/01/14 09:32:09;;;;;;;15.70;3.40;;;;;;;10.78;87.02;97770.00;5060168;28;20101;-58
2023/01/14 09:34:38;;;;;;;2.17;1.30;;;;;;;10.82;86.44;97790.59;5058001;28;21108;-58
2023/01/14 09:37:06;;;;;;;26.27;5.05;;;;;;;10.85;86.01;97793.91;5059243;28;20052;-54
2023/01/14 09:39:32;;;;;;;11.05;3.13;;;;;;;10.87;86.07;97786.91;5057915;28;20048;-57
2023/01/14 09:42:05;;;;;;;10.82;3.20;;;;;;;10.88;86.69;97790.34;5058211;28;20491;-54
2023/01/14 09:44:33;;;;;;;8.15;2.88;;;;;;;10.93;86.93;97793.59;5052778;28;20563;-59
2023/01/14 09:47:00;;;;;;;7.35;2.50;;;;;;;10.94;86.23;97795.28;5055276;28;20068;-58
2023/01/14 09:49:28;;;;;;;8.00;2.72;;;;;;;10.96;87.03;97793.47;5053672;28;20157;-57
2023/01/14 09:52:11;;;;;;;5.32;2.35;;;;;;;10.99;86.75;97803.72;5059838;28;20044;-58
2023/01/14 10:03:15;;;;;;;4.45;2.22;;;;;;;11.13;86.90;97820.44;5039222;28;20398;-58
2023/01/14 10:05:48;;;;;;;5.53;1.95;;;;;;;11.17;86.84;97816.81;4997050;28;20054;-56
2023/01/14 10:08:16;;;;;;;3.88;1.90;;;;;;;11.19;86.64;97820.19;4993538;28;20824;-54
2023/01/14 10:10:44;;;;;;;4.10;2.05;;;;;;;11.19;86.70;97823.59;4990595;28;20085;-59
2023/01/14 10:13:34;;;;;;;1.70;1.08;;;;;;;11.15;85.40;97819.44;4991108;28;20141;-59
2023/01/14 10:16:17;;;;;;;1.42;0.30;;;;;;;11.13;85.72;97830.78;4992257;28;20046;-55
2023/01/14 10:19:14;;;;;;;3.90;1.20;;;;;;;11.15;85.57;97829.00;4992062;28;20050;-56
2023/01/14 10:24:21;;;;;;;6.28;2.20;;;;;;;11.25;85.27;97835.47;5112891;27;20409;-55
2023/01/14 10:26:50;;;;;;;2.72;1.05;;;;;;;11.26;85.52;97842.34;5049791;27;20119;-56
2023/01/14 10:29:20;;;;;;;5.32;1.05;;;;;;;11.29;84.62;97837.03;5081188;28;20071;-55
2023/01/14 10:31:54;;;;;;;5.00;1.83;;;;;;;11.29;85.42;97841.38;5089803;28;20052;-58
2023/01/14 10:34:28;;;;;;;7.40;2.28;;;;;;;11.32;84.17;97855.03;5091914;28;20555;-56
2023/01/14 10:36:55;;;;;;;3.75;1.00;;;;;;;11.33;85.30;97863.66;5091670;28;20048;-59
2023/01/14 10:39:21;;;;;;;1.90;0.93;;;;;;;11.32;84.42;97873.19;5090665;28;20084;-58
2023/01/14 10:41:48;;;;;;;1.02;0.57;;;;;;;11.36;84.13;97873.91;5089474;28;20071;-56
2023/01/14 10:44:23;;;;;;;0.35;0.20;;;;;;;11.40;84.71;97879.81;5089352;28;20055;-59
2023/01/14 10:46:54;;;;;;;1.20;0.60;;;;;;;11.43;84.09;97884.88;5088427;28;20505;-57
2023/01/14 10:49:29;;;;;;;1.35;0.40;;;;;;;11.44;83.64;97887.41;5089874;28;20071;-56
2023/01/14 10:51:57;;;;;;;0.43;0.10;;;;;;;11.43;83.69;97884.88;5085399;28;20082;-57
2023/01/14 10:54:25;;;;;;;0.52;0.25;;;;;;;11.50;84.51;97880.28;5097989;28;20125;-58
2023/01/14 10:56:56;;;;;;;1.45;0.25;;;;;;;11.52;83.34;97881.88;5087648;28;20079;-56
2023/01/14 11:04:58;;;;;;;1.10;1.10;;;;;;;11.47;83.11;97886.44;5028892;27;20415;-56
2023/01/14 11:10:23;;;;;;;0.50;0.50;;;;;;;11.64;81.66;97892.66;5035706;28;20406;-55
2023/01/14 11:12:52;;;;;;;0.77;0.30;;;;;;;11.52;81.30;97894.84;5014175;28;20489;-59
2023/01/14 11:15:37;;;;;;;0.73;0.32;;;;;;;11.44;81.17;97902.94;5014879;28;20046;-55
2023/01/14 11:21:16;;;;;;;0.52;0.47;;;;;;;11.35;80.57;97912.84;5007853;27;20406;-58
2023/01/14 11:23:45;;;;;;;0.60;0.30;;;;;;;11.35;81.55;97910.25;4994345;28;20039;-57
2023/01/14 11:26:23;;;;;;;1.45;0.60;;;;;;;11.32;80.64;97909.47;4985116;28;20047;-56
2023/01/14 11:28:52;;;;;;;0.50;0.30;;;;;;;11.35;81.58;97918.03;4985162;28;20070;-58
2023/01/14 11:31:28;;;;;;;1.70;1.30;;;;;;;11.33;80.28;97925.88;4995542;28;20452;-57
2023/01/14 11:33:56;;;;;;;0.70;0.32;;;;;;;11.35;81.30;97918.03;4987950;28;20057;-59
2023/01/14 11:36:25;;;;;;;0.65;0.30;;;;;;;11.37;80.95;97924.84;4994102;28;20069;-60
2023/01/14 11:38:55;;;;;;;0.60;0.40;;;;;;;11.39;80.33;97932.56;4986716;28;20046;-58
2023/01/14 11:41:39;;;;;;;1.02;0.40;;;;;;;11.36;81.47;97930.09;4991644;28;20129;-56
2023/01/14 11:47:01;;;;;;;2.17;0.82;;;;;;;11.24;80.34;97927.06;5039168;28;20406;-57
2023/01/14 11:49:28;;;;;;;3.72;1.02;;;;;;;11.25;80.08;97922.75;5017597;28;20104;-58
2023/01/14 11:51:58;;;;;;;2.63;1.83;;;;;;;11.22;80.02;97928.03;5020207;28;20050;-58
2023/01/14 11:54:31;;;;;;;;;;;;;;;11.08;80.40;97944.13;5017260;28;20050;-57
2023/01/14 11:56:58;;;;;;;20.05;8.65;;;;;;;11.13;79.95;97939.59;5017870;28;19937;-58
2023/01/14 11:59:32;;;;;;;13.10;5.28;;;;;;;11.12;80.15;97937.94;5015414;28;20153;-59
2023/01/14 12:02:22;;;;;;;11.25;5.63;;;;;;;11.09;79.59;97932.84;5015182;28;20498;-56
2023/01/14 12:05:01;;;;;;;6.82;3.58;;;;;;;11.07;79.52;97926.91;5013863;28;20137;-57
2023/01/14 12:07:35;;;;;;;4.07;2.17;;;;;;;11.12;79.90;97932.75;5016137;28;20049;-58
2023/01/14 12:10:12;;;;;;;6.38;3.88;;;;;;;11.14;79.47;97925.75;5018740;28;20046;-56
2023/01/14 12:18:18;;;;;;;2.53;2.33;;;;;;;11.11;78.91;97918.13;5041318;28;20396;-58
2023/01/14 12:20:45;;;;;;;2.30;2.10;;;;;;;11.11;78.82;97931.06;4999859;28;20191;-60
2023/01/14 12:23:17;;;;;;;3.45;2.40;;;;;;;11.09;78.73;97931.13;4989603;28;20181;-60
2023/01/14 12:25:48;;;;;;;1.75;1.65;;;;;;;11.06;79.06;97944.19;4988967;28;20077;-56
2023/01/14 12:28:29;;;;;;;1.17;1.08;;;;;;;11.04;78.39;97945.97;4991465;28;20065;-54
2023/01/14 12:33:39;;;;;;;1.15;0.68;;;;;;;11.02;78.38;97947.81;5037381;28;20885;-56
2023/01/14 12:36:24;;;;;;;0.40;0.25;;;;;;;10.96;78.11;97948.03;5016308;28;20072;-54
2023/01/14 12:47:18;;;;;;;0.77;0.68;;;;;;;11.18;77.43;97937.69;5027958;27;20396;-58
2023/01/14 12:49:44;;;;;;;1.05;0.95;;;;;;;10.98;77.51;97935.88;5004342;28;20062;-55
2023/01/14 12:52:22;;;;;;;1.73;1.63;;;;;;;10.92;77.72;97939.53;5002874;28;20509;-57
2023/01/14 12:54:49;;;;;;;1.15;1.05;;;;;;;10.84;78.30;97933.81;5006634;28;20061;-56
2023/01/14 12:57:21;;;;;;;1.40;1.30;;;;;;;10.80;78.50;97939.09;5008194;28;20445;-55
2023/01/14 12:59:54;;;;;;;1.20;1.10;;;;;;;10.78;78.47;97950.41;5009081;28;20172;-57
2023/01/14 13:02:42;;;;;;;0.30;0.20;;;;;;;10.56;78.13;97961.56;5006004;28;20653;-58
2023/01/14 13:05:12;;;;;;;2.08;0.98;;;;;;;10.36;77.22;97957.06;5009275;28;20050;-57
2023/01/14 13:07:48;;;;;;;0.93;0.88;;;;;;;10.00;76.09;97959.13;5005177;28;20072;-59
2023/01/14 13:13:05;;;;;;;0.68;0.32;;;;;;;9.49;77.15;97966.81;5040203;27;20389;-55
2023/01/14 13:15:35;;;;;;;2.90;0.63;;;;;;;9.30;77.03;97968.28;4991525;28;20058;-53
2023/01/14 13:18:05;;;;;;;3.70;1.30;;;;;;;9.23;77.44;97978.81;5023873;28;20116;-54
2023/01/14 13:23:08;;;;;;;0.40;0.30;;;;;;;8.87;77.91;97976.44;5022788;28;20403;-56
2023/01/14 13:31:09;;;;;;;3.47;3.17;;;;;;;8.82;78.53;98002.38;5035039;28;20404;-56
2023/01/14 13:33:39;;;;;;;2.97;1.70;;;;;;;8.61;79.00;97990.94;4992039;28;20058;-56
2023/01/14 13:41:43;;;;;;;2.63;1.17;;;;;;;8.67;78.34;97995.94;5026362;27;20926;-55
2023/01/14 13:44:33;;;;;;;4.05;1.23;;;;;;;8.57;79.13;98004.81;5035536;28;20052;-54
2023/01/14 13:47:04;;;;;;;1.42;1.05;;;;;;;8.36;79.13;98027.69;5056945;28;20084;-58
2023/01/14 13:49:38;;;;;;;1.27;0.47;;;;;;;8.40;78.40;98024.16;5028324;28;20057;-57
2023/01/14 13:54:59;;;;;;;0.68;0.45;;;;;;;8.26;78.05;98031.38;5025896;28;20437;-55
2023/01/14 13:57:33;;;;;;;1.35;0.98;;;;;;;8.30;78.16;98028.69;4962456;28;20074;-56
2023/01/14 14:00:03;;;;;;;3.42;0.50;;;;;;;8.34;78.76;98029.44;4970728;28;20062;-56
2023/01/14 14:05:37;;;;;;;5.65;3.45;;;;;;;8.32;78.15;98041.56;5043674;27;20399;-55
2023/01/14 14:10:43;;;;;;;8.05;2.25;;;;;;;8.34;78.36;98047.50;5027922;28;20383;-57
2023/01/14 14:15:53;;;;;;;17.42;4.22;;;;;;;8.33;78.11;98048.41;5046288;27;20404;-57